Time;durP1;ratioP1;P1;durP2;ratioP2;P2;SDS_P1;SDS_P2;PMS_P1;PMS_P2;Temp;Humidity;BMP_temperature;BMP_pressure;BME280_temperature;BME280_humidity;BME280_pressure;Samples;Min_cycle;Max_cycle;Signal;HPM_P1;HPM_P2
2022/01/07 00:00:48;;;;;;;18.60;6.93;;;-1.40;99.90;;;;;;5080713;28;20552;-82
2022/01/07 00:03:14;;;;;;;21.40;7.23;;;-1.50;99.90;;;;;;5079412;28;20253;-83
2022/01/07 00:05:40;;;;;;;14.63;6.45;;;-1.50;99.90;;;;;;5096539;28;20662;-82
2022/01/07 00:08:06;;;;;;;12.25;6.70;;;-1.40;99.90;;;;;;5082936;28;20214;-82
2022/01/07 00:10:32;;;;;;;22.58;8.13;;;-1.50;99.90;;;;;;5081096;28;20441;-84
2022/01/07 00:12:58;;;;;;;14.40;8.53;;;-1.50;99.90;;;;;;5069554;28;20176;-83
2022/01/07 00:15:24;;;;;;;17.00;6.80;;;-1.40;99.90;;;;;;5070651;28;20465;-84
2022/01/07 00:17:50;;;;;;;17.85;6.00;;;-1.40;99.90;;;;;;5070775;28;20197;-84
2022/01/07 00:20:16;;;;;;;14.20;7.75;;;-1.50;99.90;;;;;;5073932;28;20255;-85
2022/01/07 00:22:43;;;;;;;11.35;6.00;;;-1.60;99.90;;;;;;5073635;28;20190;-84
2022/01/07 00:25:11;;;;;;;26.48;11.25;;;-1.50;99.90;;;;;;5072020;28;20866;-85
2022/01/07 00:27:37;;;;;;;33.25;14.10;;;-1.50;99.90;;;;;;5070396;28;20177;-84
2022/01/07 00:30:06;;;;;;;30.97;14.93;;;-1.70;99.90;;;;;;5071894;28;20187;-85
2022/01/07 00:32:32;;;;;;;38.78;18.15;;;-1.70;99.90;;;;;;5069639;28;20439;-86
2022/01/07 00:34:58;;;;;;;39.23;18.33;;;-1.70;99.90;;;;;;5071678;28;20227;-83
2022/01/07 00:37:23;;;;;;;39.17;21.07;;;-1.70;99.90;;;;;;5070535;28;20199;-84
2022/01/07 00:39:49;;;;;;;35.20;18.70;;;-1.80;99.90;;;;;;5070363;28;20194;-84
2022/01/07 00:42:15;;;;;;;26.33;16.03;;;-1.80;99.90;;;;;;5069356;28;20685;-86
2022/01/07 00:44:40;;;;;;;36.23;15.30;;;-1.80;99.90;;;;;;5067533;28;20168;-87
2022/01/07 00:47:06;;;;;;;33.77;15.93;;;-1.80;99.90;;;;;;5065742;28;20185;-87
2022/01/07 00:49:32;;;;;;;30.67;12.90;;;-1.80;99.90;;;;;;5070040;28;20219;-86
2022/01/07 00:51:59;;;;;;;34.77;15.10;;;;;;;;;;5070532;28;20584;-86
2022/01/07 00:54:25;;;;;;;28.80;15.25;;;-1.80;99.90;;;;;;5077391;28;20499;-86
2022/01/07 00:56:51;;;;;;;20.63;10.47;;;-1.90;99.90;;;;;;5070591;28;20228;-87
2022/01/07 00:59:17;;;;;;;25.23;14.00;;;-1.90;99.90;;;;;;5068578;28;20430;-87
2022/01/07 01:01:43;;;;;;;24.90;13.37;;;-1.90;99.90;;;;;;5071763;28;20418;-87
2022/01/07 01:04:08;;;;;;;32.43;15.23;;;-1.90;99.90;;;;;;5072799;28;20188;-87
2022/01/07 01:06:34;;;;;;;23.90;14.20;;;-1.80;99.90;;;;;;5076325;28;20207;-87
2022/01/07 01:09:00;;;;;;;26.08;13.38;;;-1.70;99.90;;;;;;5069381;28;20184;-87
2022/01/07 01:11:25;;;;;;;22.97;14.00;;;-1.60;99.90;;;;;;5068760;28;20243;-88
2022/01/07 01:13:51;;;;;;;19.80;8.63;;;;;;;;;;5067339;28;20321;-87
2022/01/07 01:16:17;;;;;;;23.20;10.33;;;-1.60;99.90;;;;;;5072281;28;20223;-87
2022/01/07 01:18:43;;;;;;;16.50;8.07;;;-1.60;99.90;;;;;;5070950;28;20458;-87
2022/01/07 01:26:13;;;;;;;15.02;8.82;;;;;;;;;;5023601;28;20599;-90
2022/01/07 01:28:42;;;;;;;34.33;14.10;;;-1.80;99.90;;;;;;5047184;28;20186;-90
2022/01/07 01:31:08;;;;;;;35.58;15.82;;;;;;;;;;5029807;28;20184;-89
2022/01/07 01:33:33;;;;;;;27.15;15.57;;;-1.90;99.90;;;;;;5046369;28;20186;-89
2022/01/07 01:36:02;;;;;;;25.20;15.00;;;-2.00;99.90;;;;;;5020630;28;20262;-90
2022/01/07 01:38:30;;;;;;;27.85;13.82;;;;;;;;;;5022326;28;20197;-91
2022/01/07 01:40:56;;;;;;;34.92;14.98;;;-2.00;99.90;;;;;;5014916;28;20261;-89
2022/01/07 01:43:22;;;;;;;28.90;12.00;;;-2.00;99.90;;;;;;5028307;28;20425;-89
2022/01/07 01:45:48;;;;;;;22.40;13.13;;;-2.10;99.90;;;;;;5026161;28;20831;-89
2022/01/07 01:48:14;;;;;;;16.73;11.50;;;-2.10;99.90;;;;;;5029886;28;20189;-88
2022/01/07 01:50:39;;;;;;;24.03;12.50;;;-2.10;99.90;;;;;;5029834;28;20236;-88
2022/01/07 01:53:05;;;;;;;22.60;11.67;;;-2.10;99.90;;;;;;5016856;28;20184;-88
2022/01/07 01:55:31;;;;;;;30.33;13.13;;;-2.20;99.90;;;;;;5024030;28;20236;-88
2022/01/07 01:57:57;;;;;;;27.07;14.33;;;-2.10;99.90;;;;;;5017824;28;20209;-89
2022/01/07 02:00:25;;;;;;;31.50;16.17;;;-2.10;99.90;;;;;;5018470;28;20437;-89
2022/01/07 02:02:51;;;;;;;26.52;14.00;;;-2.20;99.90;;;;;;5041484;28;20249;-88
2022/01/07 02:05:17;;;;;;;26.02;14.73;;;;;;;;;;5015733;28;20203;-87
2022/01/07 02:08:01;;;;;;;31.83;12.90;;;;;;;;;;5038466;28;20254;-89
2022/01/07 02:10:29;;;;;;;29.15;13.70;;;-2.20;99.90;;;;;;5043754;28;20192;-89
2022/01/07 02:12:56;;;;;;;24.90;14.57;;;-2.20;99.90;;;;;;5041074;28;20244;-89
2022/01/07 02:15:22;;;;;;;34.25;16.63;;;-2.00;99.90;;;;;;5032138;28;20213;-89
2022/01/07 02:17:49;;;;;;;38.43;14.63;;;-2.00;99.90;;;;;;5035535;28;20201;-88
2022/01/07 02:20:18;;;;;;;21.90;12.00;;;-1.90;99.90;;;;;;5048097;28;20231;-88
2022/01/07 02:22:44;;;;;;;22.95;9.98;;;-1.90;99.90;;;;;;5049221;28;20178;-89
2022/01/07 02:25:11;;;;;;;24.60;11.60;;;-1.90;99.90;;;;;;5026017;28;21222;-89
2022/01/07 02:27:40;;;;;;;26.25;13.18;;;-1.90;99.90;;;;;;5025231;28;20193;-89
2022/01/07 02:30:10;;;;;;;21.50;12.55;;;-1.70;99.90;;;;;;5031859;28;20185;-89
2022/01/07 02:32:36;;;;;;;29.83;11.48;;;;;;;;;;5035948;28;20231;-89
2022/01/07 02:35:02;;;;;;;19.33;11.73;;;;;;;;;;5036516;28;20216;-89
2022/01/07 02:37:28;;;;;;;34.42;13.18;;;;;;;;;;5047223;28;20292;-89
2022/01/07 02:39:54;;;;;;;28.52;12.15;;;;;;;;;;5028074;28;21233;-88
2022/01/07 02:42:20;;;;;;;26.33;11.75;;;;;;;;;;5040300;28;20297;-88
2022/01/07 02:44:46;;;;;;;20.75;11.73;;;;;;;;;;5045805;28;20201;-89
2022/01/07 02:47:12;;;;;;;19.37;10.77;;;;;;;;;;5046481;28;20204;-88
2022/01/07 02:49:38;;;;;;;20.97;9.77;;;;;;;;;;5034957;28;20436;-89
2022/01/07 02:52:04;;;;;;;24.23;12.20;;;-1.90;99.90;;;;;;5035248;28;20842;-89
2022/01/07 02:54:30;;;;;;;20.67;10.65;;;;;;;;;;5031107;28;21787;-89
2022/01/07 02:56:56;;;;;;;22.20;10.80;;;;;;;;;;5029455;28;20268;-89
2022/01/07 02:59:22;;;;;;;23.38;13.20;;;;;;;;;;5022655;28;20475;-88
2022/01/07 03:01:48;;;;;;;27.67;13.60;;;;;;;;;;5039593;28;20225;-88
2022/01/07 03:04:14;;;;;;;29.83;13.33;;;;;;;;;;5037441;28;20456;-88
2022/01/07 03:06:42;;;;;;;20.30;11.48;;;-2.00;99.90;;;;;;5021146;28;20421;-88
2022/01/07 03:09:08;;;;;;;24.17;11.38;;;-2.00;99.90;;;;;;5042476;28;20186;-89
2022/01/07 03:11:35;;;;;;;21.17;11.27;;;-1.90;99.90;;;;;;5026944;28;20186;-89
2022/01/07 03:14:01;;;;;;;20.20;10.68;;;-1.80;99.90;;;;;;5029075;28;20479;-89
2022/01/07 03:16:27;;;;;;;31.03;11.40;;;;;;;;;;5052005;28;20718;-88
2022/01/07 03:18:55;;;;;;;27.07;14.63;;;-1.60;99.90;;;;;;5034176;28;20207;-89
2022/01/07 03:21:21;;;;;;;25.95;12.73;;;;;;;;;;5037071;28;20463;-88
2022/01/07 03:23:47;;;;;;;23.00;12.57;;;;;;;;;;5029080;28;20601;-89
2022/01/07 03:26:12;;;;;;;26.90;10.37;;;-1.60;99.90;;;;;;5050790;28;20587;-89
2022/01/07 03:28:39;;;;;;;17.43;10.67;;;-1.70;99.90;;;;;;5035185;28;20954;-88
2022/01/07 03:31:05;;;;;;;23.60;10.70;;;;;;;;;;5037766;28;20734;-88
2022/01/07 03:33:31;;;;;;;20.77;9.30;;;;;;;;;;5047784;28;20193;-88
2022/01/07 03:35:57;;;;;;;20.17;10.17;;;;;;;;;;5038893;28;20205;-88
2022/01/07 03:38:22;;;;;;;11.33;7.87;;;;;;;;;;5033132;28;20467;-89
2022/01/07 03:40:49;;;;;;;26.97;10.40;;;;;;;;;;5030507;28;20451;-88
2022/01/07 03:43:15;;;;;;;20.70;10.27;;;;;;;;;;5025055;28;20437;-89
2022/01/07 03:45:41;;;;;;;27.05;12.50;;;;;;;;;;5043163;28;20213;-88
2022/01/07 03:48:06;;;;;;;23.80;12.43;;;-2.00;99.90;;;;;;5040160;28;20193;-88
2022/01/07 03:50:33;;;;;;;16.03;11.37;;;;;;;;;;5027640;28;20225;-87
2022/01/07 03:52:59;;;;;;;27.70;13.00;;;-2.00;99.90;;;;;;5029657;28;20481;-88
2022/01/07 03:55:28;;;;;;;23.17;12.98;;;-2.00;99.90;;;;;;5028946;28;20206;-89
2022/01/07 03:57:54;;;;;;;28.45;13.48;;;;;;;;;;5022784;28;20237;-86
2022/01/07 04:00:23;;;;;;;45.63;13.90;;;-2.00;99.90;;;;;;5022460;28;20235;-87
2022/01/07 04:02:49;;;;;;;20.00;12.05;;;-2.00;99.90;;;;;;5020000;28;20186;-88
2022/01/07 04:05:19;;;;;;;23.88;13.10;;;;;;;;;;5027254;28;20285;-87
2022/01/07 04:07:44;;;;;;;22.00;11.88;;;-2.00;99.90;;;;;;5028677;28;20212;-87
2022/01/07 04:10:10;;;;;;;22.20;12.40;;;-2.00;99.90;;;;;;5031723;28;20806;-89
2022/01/07 04:12:36;;;;;;;27.80;12.75;;;-2.00;99.90;;;;;;5021248;28;20187;-89
2022/01/07 04:15:08;;;;;;;22.70;12.73;;;;;;;;;;5021090;28;22111;-89
2022/01/07 04:17:37;;;;;;;18.52;11.82;;;-2.10;99.90;;;;;;5026701;28;21061;-89
2022/01/07 04:20:06;;;;;;;23.95;13.23;;;-2.20;99.90;;;;;;5028280;28;20308;-88
2022/01/07 04:22:35;;;;;;;24.00;13.25;;;-2.30;99.90;;;;;;5018796;28;21055;-89
2022/01/07 04:25:03;;;;;;;26.02;12.85;;;-2.40;99.90;;;;;;5031237;28;20762;-88
2022/01/07 04:27:29;;;;;;;30.25;12.50;;;;;;;;;;5028214;28;20205;-88
2022/01/07 04:29:55;;;;;;;26.95;12.70;;;;;;;;;;5021177;28;20189;-88
2022/01/07 04:32:21;;;;;;;38.03;13.63;;;;;;;;;;5028462;28;20192;-88
2022/01/07 04:34:47;;;;;;;30.13;12.43;;;;;;;;;;5019368;28;20882;-87
2022/01/07 04:37:12;;;;;;;24.20;13.10;;;-2.30;99.90;;;;;;5023821;28;20554;-89
2022/01/07 04:39:38;;;;;;;30.23;13.33;;;;;;;;;;5027013;28;20313;-87
2022/01/07 04:42:06;;;;;;;28.30;14.20;;;-2.20;99.90;;;;;;5022647;28;20197;-88
2022/01/07 04:44:32;;;;;;;31.23;15.63;;;;;;;;;;5011950;28;21160;-88
2022/01/07 04:46:58;;;;;;;28.77;16.37;;;;;;;;;;5018158;28;20240;-88
2022/01/07 04:49:24;;;;;;;13.10;8.83;;;;;;;;;;5035029;28;20433;-87
2022/01/07 04:51:50;;;;;;;20.00;12.38;;;;;;;;;;5026765;28;20436;-87
2022/01/07 04:54:16;;;;;;;25.00;13.23;;;;;;;;;;5017468;28;20197;-88
2022/01/07 04:56:42;;;;;;;16.97;8.50;;;;;;;;;;5043199;28;20438;-89
2022/01/07 04:59:07;;;;;;;20.33;8.27;;;;;;;;;;5029830;28;20548;-89
2022/01/07 05:01:33;;;;;;;9.63;5.30;;;-1.90;99.90;;;;;;5018872;28;20433;-87
2022/01/07 05:03:58;;;;;;;4.57;3.03;;;-1.90;99.90;;;;;;5019411;28;20447;-87
2022/01/07 05:09:08;;;;;;;12.65;6.05;;;-1.80;99.90;;;;;;5044100;28;20180;-87
2022/01/07 05:11:36;;;;;;;16.50;5.50;;;-1.70;99.90;;;;;;5036969;28;20248;-88
2022/01/07 05:14:02;;;;;;;8.23;3.58;;;;;;;;;;5025647;28;20186;-88
2022/01/07 05:16:28;;;;;;;5.18;3.38;;;;;;;;;;5019149;28;20189;-89
2022/01/07 05:18:55;;;;;;;9.35;4.50;;;;;;;;;;5032388;28;20208;-87
2022/01/07 05:21:21;;;;;;;8.75;3.00;;;;;;;;;;5022162;28;20178;-88
2022/01/07 05:23:47;;;;;;;13.40;6.50;;;;;;;;;;5043162;28;20177;-88
2022/01/07 05:26:13;;;;;;;2.50;1.97;;;;;;;;;;5031333;28;20476;-88
2022/01/07 05:28:38;;;;;;;2.58;2.13;;;-1.30;99.90;;;;;;5046472;28;20443;-88
2022/01/07 05:31:04;;;;;;;10.83;3.80;;;;;;;;;;5025357;28;20596;-87
2022/01/07 05:33:30;;;;;;;16.88;4.05;;;-1.40;99.90;;;;;;5023956;28;20716;-87
2022/01/07 05:35:56;;;;;;;6.80;3.50;;;-3.00;99.90;;;;;;5031385;28;20244;-88
2022/01/07 05:38:22;;;;;;;8.67;3.60;;;-1.20;99.90;;;;;;5017246;28;20692;-87
2022/01/07 05:40:48;;;;;;;7.18;4.38;;;;;;;;;;5029490;28;20264;-88
2022/01/07 05:43:14;;;;;;;5.47;3.83;;;;;;;;;;5025186;28;20589;-88
2022/01/07 05:45:44;;;;;;;13.47;4.03;;;;;;;;;;5024930;28;20875;-88
2022/01/07 05:48:10;;;;;;;8.05;3.38;;;;;;;;;;5023186;28;20432;-87
2022/01/07 05:50:35;;;;;;;4.77;2.90;;;-1.10;99.90;;;;;;5025490;28;20190;-87
2022/01/07 05:53:01;;;;;;;6.30;2.50;;;-1.00;99.90;;;;;;5040760;28;20814;-87
2022/01/07 05:55:26;;;;;;;10.13;2.20;;;-1.00;99.90;;;;;;5039197;28;20584;-89
2022/01/07 05:57:52;;;;;;;4.73;3.37;;;-1.00;99.90;;;;;;5020645;28;21099;-88
2022/01/07 06:00:18;;;;;;;4.30;2.43;;;-0.90;99.90;;;;;;5028368;28;20189;-89
2022/01/07 06:02:44;;;;;;;5.97;2.13;;;-0.90;99.90;;;;;;5030430;28;20182;-88
2022/01/07 06:05:10;;;;;;;10.17;3.67;;;;;;;;;;5027152;28;20462;-88
2022/01/07 06:07:35;;;;;;;5.47;2.10;;;-0.90;99.90;;;;;;5034828;28;20432;-87
2022/01/07 06:10:01;;;;;;;6.13;3.13;;;;;;;;;;5035795;28;20184;-89
2022/01/07 06:12:27;;;;;;;6.78;3.25;;;;;;;;;;5036902;28;20189;-89
2022/01/07 06:14:53;;;;;;;3.77;2.47;;;;;;;;;;5021474;28;20233;-88
2022/01/07 06:17:21;;;;;;;5.63;3.53;;;-0.90;99.90;;;;;;5024706;28;20436;-89
2022/01/07 06:19:47;;;;;;;3.38;2.25;;;;;;;;;;5031065;28;20201;-88
2022/01/07 06:22:13;;;;;;;9.10;4.10;;;;;;;;;;5026624;28;20186;-89
2022/01/07 06:24:39;;;;;;;4.63;2.90;;;;;;;;;;5030200;28;20468;-89
2022/01/07 06:27:05;;;;;;;4.78;2.00;;;;;;;;;;5027773;28;20439;-89
2022/01/07 06:29:31;;;;;;;5.70;3.15;;;;;;;;;;5030576;28;20181;-89
2022/01/07 06:31:57;;;;;;;8.35;5.07;;;;;;;;;;5015359;28;20174;-89
2022/01/07 06:34:23;;;;;;;8.80;4.33;;;;;;;;;;5025731;28;20695;-89
2022/01/07 06:36:50;;;;;;;6.13;3.65;;;-0.80;99.90;;;;;;5033924;28;20432;-90
2022/01/07 06:39:18;;;;;;;3.92;2.85;;;;;;;;;;5031881;28;20214;-89
2022/01/07 06:41:46;;;;;;;12.27;9.07;;;;;;;;;;5023953;28;20177;-88
2022/01/07 06:44:12;;;;;;;11.10;6.63;;;;;;;;;;5034274;28;20209;-88
2022/01/07 06:46:38;;;;;;;14.82;9.88;;;-0.80;99.90;;;;;;5033860;28;20177;-90
2022/01/07 06:49:04;;;;;;;10.63;4.90;;;;;;;;;;5026980;28;21449;-89
2022/01/07 06:51:31;;;;;;;7.40;5.07;;;;;;;;;;5028803;28;20250;-89
2022/01/07 06:53:57;;;;;;;5.18;4.03;;;;;;;;;;5038453;28;20440;-89
2022/01/07 06:56:23;;;;;;;7.60;4.47;;;;;;;;;;5020062;28;20256;-89
2022/01/07 06:58:49;;;;;;;6.15;3.88;;;;;;;;;;5047763;28;20460;-89
2022/01/07 07:01:15;;;;;;;9.50;4.77;;;;;;;;;;5047500;28;20216;-89
2022/01/07 07:03:41;;;;;;;6.15;3.78;;;;;;;;;;5028129;28;20455;-88
2022/01/07 07:06:08;;;;;;;8.30;3.27;;;;;;;;;;5025342;28;20198;-90
2022/01/07 07:08:36;;;;;;;6.03;4.20;;;-0.40;99.90;;;;;;5033775;28;20440;-89
2022/01/07 07:11:02;;;;;;;9.07;5.78;;;;;;;;;;5034401;28;20169;-90
2022/01/07 07:13:28;;;;;;;5.40;4.05;;;;;;;;;;5035690;28;20563;-90
2022/01/07 07:15:54;;;;;;;5.20;4.17;;;;;;;;;;5020403;28;20205;-89
2022/01/07 07:18:21;;;;;;;3.47;2.80;;;;;;;;;;5029815;28;20468;-89
2022/01/07 07:20:46;;;;;;;8.65;4.07;;;;;;;;;;5043024;28;20837;-89
2022/01/07 07:23:15;;;;;;;9.40;3.47;;;;;;;;;;5032973;28;20186;-89
2022/01/07 07:25:41;;;;;;;3.83;3.35;;;;;;;;;;5022451;28;21000;-87
2022/01/07 07:28:07;;;;;;;7.60;3.80;;;;;;;;;;5038065;28;20178;-88
2022/01/07 07:30:37;;;;;;;6.07;3.43;;;;;;;;;;5031861;28;20446;-88
2022/01/07 07:33:29;;;;;;;7.70;3.25;;;-0.10;99.90;;;;;;5043948;28;20437;-88
2022/01/07 07:38:35;;;;;;;11.35;4.50;;;;;;;;;;5034326;28;20208;-88
2022/01/07 07:41:01;;;;;;;5.07;3.95;;;-0.20;99.90;;;;;;5033944;28;20173;-88
2022/01/07 07:43:26;;;;;;;5.80;3.30;;;-0.30;99.90;;;;;;5028293;28;20446;-89
2022/01/07 07:45:55;;;;;;;13.27;4.27;;;-0.10;99.90;;;;;;5033208;28;20710;-88
2022/01/07 07:48:21;;;;;;;5.10;3.67;;;;;;;;;;5027557;28;20182;-88
2022/01/07 07:50:47;;;;;;;5.27;3.43;;;;;;;;;;5027783;28;20188;-89
2022/01/07 07:53:13;;;;;;;5.70;2.77;;;;;;;;;;5027634;28;20436;-88
2022/01/07 07:55:39;;;;;;;6.13;3.63;;;;;;;;;;5031616;28;20459;-88
2022/01/07 07:58:05;;;;;;;8.93;3.53;;;;;;;;;;5025509;28;20206;-88
2022/01/07 08:00:31;;;;;;;6.37;3.63;;;0.00;99.90;;;;;;5035626;28;20511;-88
2022/01/07 08:02:58;;;;;;;6.65;3.65;;;;;;;;;;5035319;28;20503;-90
2022/01/07 08:05:24;;;;;;;7.45;4.03;;;-0.10;99.90;;;;;;5033232;28;20202;-88
2022/01/07 08:07:50;;;;;;;8.33;3.17;;;;;;;;;;5015521;28;20782;-89
2022/01/07 08:10:22;;;;;;;13.83;6.00;;;0.00;99.90;;;;;;5026555;28;20432;-87
2022/01/07 08:12:53;;;;;;;6.80;4.30;;;0.10;99.90;;;;;;5021222;28;20965;-89
2022/01/07 08:18:04;;;;;;;7.32;4.20;;;0.10;99.90;;;;;;5024651;28;20227;-86
2022/01/07 08:20:32;;;;;;;4.90;3.63;;;0.10;99.90;;;;;;5041646;28;20186;-87
2022/01/07 08:22:58;;;;;;;7.15;5.22;;;;;;;;;;5027793;28;20285;-89
2022/01/07 08:25:24;;;;;;;13.30;5.67;;;;;;;;;;5025197;28;20238;-88
2022/01/07 08:27:50;;;;;;;9.45;4.63;;;;;;;;;;5021208;28;21005;-88
2022/01/07 08:30:24;;;;;;;10.43;5.00;;;;;;;;;;5033847;28;20279;-89
2022/01/07 08:35:37;;;;;;;10.93;4.65;;;0.40;99.90;;;;;;5023356;28;20225;-89
2022/01/07 08:38:03;;;;;;;10.70;5.22;;;;;;;;;;5022646;28;20227;-89
2022/01/07 08:40:29;;;;;;;8.45;4.63;;;;;;;;;;5038730;28;20272;-88
2022/01/07 08:42:55;;;;;;;7.28;4.47;;;0.50;99.90;;;;;;5014559;28;20266;-89
2022/01/07 08:45:20;;;;;;;12.32;5.05;;;0.50;99.90;;;;;;5021082;28;20203;-91
2022/01/07 08:47:46;;;;;;;8.30;4.97;;;;;;;;;;5011348;28;20247;-86
2022/01/07 08:50:12;;;;;;;7.27;4.27;;;;;;;;;;5016696;28;20678;-89
2022/01/07 08:52:38;;;;;;;7.03;5.78;;;;;;;;;;5006252;28;20821;-89
2022/01/07 08:55:04;;;;;;;5.67;3.47;;;0.50;99.90;;;;;;5005873;28;20209;-88
2022/01/07 08:57:30;;;;;;;10.47;4.87;;;0.50;99.90;;;;;;5022562;28;20475;-89
2022/01/07 08:59:56;;;;;;;9.90;4.33;;;;;;;;;;5006173;28;20886;-88
2022/01/07 09:02:22;;;;;;;9.80;5.32;;;;;;;;;;5009792;28;20193;-87
2022/01/07 09:04:48;;;;;;;7.60;3.90;;;0.70;99.90;;;;;;5038537;28;20204;-88
2022/01/07 09:07:14;;;;;;;11.30;4.78;;;0.70;99.90;;;;;;5016597;28;20441;-88
2022/01/07 09:09:40;;;;;;;5.67;3.90;;;0.60;99.90;;;;;;5007676;28;20193;-87
2022/01/07 09:12:06;;;;;;;4.70;3.70;;;0.70;99.90;;;;;;5020197;28;20179;-88
2022/01/07 09:14:32;;;;;;;3.80;2.30;;;0.70;99.90;;;;;;5015735;28;20456;-88
2022/01/07 09:16:58;;;;;;;6.10;4.40;;;;;;;;;;5009536;28;20186;-88
2022/01/07 09:19:25;;;;;;;8.00;3.88;;;0.80;99.90;;;;;;5007744;28;20293;-87
2022/01/07 09:21:51;;;;;;;8.50;4.13;;;0.90;99.90;;;;;;5019497;28;20183;-87
2022/01/07 09:24:17;;;;;;;14.83;4.67;;;0.80;99.90;;;;;;5019008;28;20213;-88
2022/01/07 09:26:43;;;;;;;7.85;3.50;;;0.90;99.90;;;;;;5029355;28;20590;-88
2022/01/07 09:29:09;;;;;;;8.87;5.00;;;;;;;;;;5013554;28;20655;-88
2022/01/07 09:31:34;;;;;;;5.03;3.40;;;1.00;99.90;;;;;;5029831;28;20269;-87
2022/01/07 09:34:02;;;;;;;10.97;5.03;;;1.10;99.90;;;;;;5032644;28;20432;-87
2022/01/07 09:36:28;;;;;;;7.82;5.50;;;1.10;99.90;;;;;;5030920;28;20182;-87
2022/01/07 09:38:54;;;;;;;10.10;3.83;;;;;;;;;;5026634;28;20667;-88
2022/01/07 09:41:19;;;;;;;10.40;5.87;;;;;;;;;;5025622;28;20240;-87
2022/01/07 09:43:45;;;;;;;10.13;4.03;;;;;;;;;;5028725;28;20439;-87
2022/01/07 09:46:15;;;;;;;11.65;5.00;;;1.20;99.90;;;;;;5031809;28;20536;-86
2022/01/07 09:48:45;;;;;;;4.25;3.78;;;0.70;99.90;;;;;;5030434;28;20178;-87
2022/01/07 09:51:13;;;;;;;13.27;5.00;;;1.10;99.90;;;;;;5030669;28;20181;-87
2022/01/07 09:53:39;;;;;;;10.75;6.10;;;1.10;99.90;;;;;;5036778;28;20273;-87
2022/01/07 09:56:05;;;;;;;14.00;5.23;;;1.10;99.90;;;;;;5039739;28;20227;-87
2022/01/07 09:58:33;;;;;;;7.50;4.40;;;1.10;99.90;;;;;;5030827;28;21053;-87
2022/01/07 10:01:05;;;;;;;6.20;4.35;;;1.10;99.90;;;;;;5025337;28;20177;-86
2022/01/07 10:03:43;;;;;;;4.90;2.97;;;1.10;99.90;;;;;;5016270;28;20170;-87
2022/01/07 10:06:20;;;;;;;4.57;2.95;;;1.00;99.90;;;;;;5045105;28;20251;-87
2022/01/07 10:09:10;;;;;;;12.77;5.00;;;1.00;99.90;;;;;;5029292;28;20184;-88
2022/01/07 10:11:36;;;;;;;8.32;5.00;;;1.10;99.90;;;;;;5019775;28;20187;-88
2022/01/07 10:14:21;;;;;;;13.55;6.43;;;1.10;99.90;;;;;;5017858;28;20186;-87
2022/01/07 10:16:59;;;;;;;10.38;4.40;;;1.10;99.90;;;;;;5027251;28;20266;-87
2022/01/07 10:19:41;;;;;;;10.57;5.13;;;1.10;99.90;;;;;;5024634;28;20208;-88
2022/01/07 10:22:12;;;;;;;13.77;6.30;;;1.10;99.90;;;;;;5027067;28;20653;-86
2022/01/07 10:24:59;;;;;;;9.90;5.47;;;0.90;99.90;;;;;;5024751;28;20343;-89
2022/01/07 10:27:34;;;;;;;6.28;3.58;;;1.10;99.90;;;;;;5015455;28;20296;-87
2022/01/07 10:29:59;;;;;;;11.70;6.63;;;1.10;99.90;;;;;;5024405;28;20212;-88
2022/01/07 10:32:31;;;;;;;10.63;6.03;;;1.30;99.90;;;;;;5024454;28;20217;-88
2022/01/07 10:35:20;;;;;;;10.27;4.20;;;1.20;99.90;;;;;;5030136;28;20198;-88
2022/01/07 10:37:49;;;;;;;8.88;4.72;;;1.30;99.90;;;;;;5031836;28;20205;-88
2022/01/07 10:40:42;;;;;;;10.00;5.30;;;1.40;99.90;;;;;;5028813;28;20212;-88
2022/01/07 10:43:21;;;;;;;14.82;6.78;;;1.30;99.90;;;;;;5028261;28;20184;-88
2022/01/07 10:45:55;;;;;;;19.42;10.73;;;1.40;99.90;;;;;;5039123;28;20193;-87
2022/01/07 10:48:23;;;;;;;9.27;6.57;;;1.40;99.90;;;;;;5044225;28;20254;-86
2022/01/07 10:50:53;;;;;;;9.77;7.05;;;1.30;99.90;;;;;;5022761;28;20268;-89
2022/01/07 10:53:29;;;;;;;18.90;9.45;;;1.40;99.90;;;;;;5020595;28;20185;-88
2022/01/07 10:56:03;;;;;;;12.63;6.30;;;1.40;99.90;;;;;;5018389;28;20229;-88
2022/01/07 10:59:04;;;;;;;27.42;10.85;;;1.40;99.90;;;;;;5015054;28;20394;-88
2022/01/07 11:01:39;;;;;;;15.93;7.97;;;1.50;99.90;;;;;;5030224;28;20425;-87
2022/01/07 11:04:07;;;;;;;19.92;9.27;;;1.70;99.90;;;;;;5024037;28;20428;-88
2022/01/07 11:06:33;;;;;;;23.23;11.32;;;1.60;99.90;;;;;;5027935;28;20181;-87
2022/01/07 11:09:00;;;;;;;16.95;8.63;;;1.60;99.90;;;;;;5027953;28;20186;-88
2022/01/07 11:11:27;;;;;;;18.27;9.55;;;1.60;99.90;;;;;;5021647;28;20232;-87
2022/01/07 11:13:53;;;;;;;8.48;4.88;;;1.30;99.90;;;;;;5010628;28;20261;-88
2022/01/07 11:16:19;;;;;;;15.73;8.30;;;1.20;99.90;;;;;;5013245;28;20308;-88
2022/01/07 11:18:46;;;;;;;8.87;5.13;;;1.20;99.90;;;;;;5022624;28;20244;-87
2022/01/07 11:21:12;;;;;;;17.50;9.50;;;1.20;99.90;;;;;;5016344;28;20469;-89
2022/01/07 11:23:41;;;;;;;15.20;8.52;;;1.30;99.90;;;;;;5014700;28;20182;-88
2022/01/07 11:26:08;;;;;;;13.80;7.28;;;1.40;99.90;;;;;;5020540;28;20214;-86
2022/01/07 11:28:35;;;;;;;17.60;7.50;;;1.40;99.90;;;;;;5020090;28;20186;-87
2022/01/07 11:31:13;;;;;;;7.38;3.75;;;1.60;99.90;;;;;;5017011;28;20186;-87
2022/01/07 11:33:39;;;;;;;13.98;6.57;;;1.50;99.90;;;;;;5021555;28;20186;-87
2022/01/07 11:36:09;;;;;;;11.63;5.00;;;1.40;99.90;;;;;;5024926;28;20209;-87
2022/01/07 11:38:46;;;;;;;8.65;5.03;;;1.40;99.90;;;;;;5023649;28;20280;-88
2022/01/07 11:41:45;;;;;;;5.03;3.38;;;1.30;99.90;;;;;;5027381;28;20538;-86
2022/01/07 11:44:14;;;;;;;6.40;3.95;;;1.40;99.90;;;;;;5015478;28;20190;-88
2022/01/07 11:46:39;;;;;;;9.98;5.22;;;1.40;99.90;;;;;;5022442;28;20181;-87
2022/01/07 11:49:25;;;;;;;11.30;4.80;;;1.40;99.90;;;;;;5011128;28;20186;-87
2022/01/07 11:51:51;;;;;;;19.88;5.43;;;1.50;99.90;;;;;;5012643;28;20212;-90
2022/01/07 11:54:20;;;;;;;14.47;5.67;;;1.80;99.90;;;;;;5020957;28;20233;-88
2022/01/07 11:56:46;;;;;;;8.07;5.63;;;1.80;99.90;;;;;;5024936;28;20216;-88
2022/01/07 11:59:20;;;;;;;9.02;4.38;;;2.00;99.90;;;;;;5043593;28;20210;-89
2022/01/07 12:02:02;;;;;;;12.35;7.85;;;2.00;99.90;;;;;;5026779;28;20656;-87
2022/01/07 12:04:29;;;;;;;8.95;5.40;;;2.20;99.90;;;;;;5021168;28;21107;-90
2022/01/07 12:07:01;;;;;;;16.25;8.63;;;2.20;99.90;;;;;;5029162;28;20181;-89
2022/01/07 12:09:32;;;;;;;17.88;6.18;;;2.20;99.90;;;;;;5047255;28;20193;-88
2022/01/07 12:11:58;;;;;;;9.85;6.90;;;;;;;;;;5023266;28;20186;-89
2022/01/07 12:14:55;;;;;;;10.25;5.40;;;2.50;99.90;;;;;;5031351;28;20202;-88
2022/01/07 12:17:24;;;;;;;6.40;4.13;;;2.40;99.90;;;;;;5016965;28;21045;-87
2022/01/07 12:19:50;;;;;;;6.00;3.25;;;2.10;99.90;;;;;;5015577;28;20187;-89
2022/01/07 12:22:18;;;;;;;2.65;2.38;;;2.10;99.90;;;;;;5024681;28;20197;-88
2022/01/07 12:24:44;;;;;;;7.75;5.13;;;1.90;99.90;;;;;;5028309;28;20206;-88
2022/01/07 12:27:20;;;;;;;7.03;4.53;;;2.10;99.90;;;;;;5029418;28;20904;-87
2022/01/07 12:29:49;;;;;;;5.30;3.10;;;2.10;99.90;;;;;;5021258;28;20173;-88
2022/01/07 12:32:16;;;;;;;7.35;4.85;;;2.20;99.90;;;;;;5031082;28;20265;-90
2022/01/07 12:34:45;;;;;;;6.05;3.88;;;2.30;99.90;;;;;;5017369;28;20199;-88
2022/01/07 12:37:16;;;;;;;9.18;2.65;;;2.40;99.90;;;;;;5016225;28;20285;-89
2022/01/07 12:39:47;;;;;;;12.38;3.78;;;2.40;99.90;;;;;;5029722;28;20273;-88
2022/01/07 12:42:15;;;;;;;8.93;3.65;;;2.50;99.90;;;;;;5024094;28;20185;-89
2022/01/07 12:44:52;;;;;;;11.65;5.63;;;2.60;99.90;;;;;;5024564;28;20264;-88
2022/01/07 12:47:23;;;;;;;7.40;3.97;;;2.80;99.90;;;;;;5030276;28;20177;-89
2022/01/07 12:49:55;;;;;;;6.00;4.03;;;3.00;99.90;;;;;;5033128;28;21113;-89
2022/01/07 12:52:32;;;;;;;7.90;3.90;;;2.90;99.90;;;;;;5040255;28;20177;-87
2022/01/07 12:55:22;;;;;;;11.73;4.97;;;2.80;99.90;;;;;;5018855;28;20210;-89
2022/01/07 12:57:49;;;;;;;11.38;6.30;;;2.70;99.90;;;;;;5024252;28;20347;-89
2022/01/07 13:00:21;;;;;;;5.95;4.00;;;2.80;99.90;;;;;;5024104;28;20257;-87
2022/01/07 13:02:49;;;;;;;8.77;4.95;;;2.70;99.90;;;;;;5019350;28;20174;-88
2022/01/07 13:05:37;;;;;;;7.93;3.90;;;2.80;99.90;;;;;;5028278;28;20201;-88
2022/01/07 13:08:21;;;;;;;10.32;4.57;;;2.80;99.90;;;;;;5022964;28;20649;-89
2022/01/07 13:10:49;;;;;;;8.32;3.47;;;3.00;99.90;;;;;;5031244;28;20165;-88
2022/01/07 13:13:18;;;;;;;6.80;4.28;;;3.10;99.90;;;;;;5043897;28;20189;-89
2022/01/07 13:15:54;;;;;;;9.98;4.57;;;3.30;99.90;;;;;;5032045;28;20201;-89
2022/01/07 13:18:24;;;;;;;7.25;4.03;;;3.40;99.90;;;;;;5026138;28;20202;-87
2022/01/07 13:20:55;;;;;;;7.85;3.45;;;3.30;99.90;;;;;;5033057;28;20180;-88
2022/01/07 13:23:29;;;;;;;8.15;4.88;;;3.20;99.90;;;;;;5028209;28;20170;-88
2022/01/07 13:25:57;;;;;;;6.72;3.83;;;3.10;99.90;;;;;;5021840;28;20294;-88
2022/01/07 13:28:34;;;;;;;5.20;3.17;;;2.90;99.90;;;;;;5025343;28;20205;-88
2022/01/07 13:31:00;;;;;;;6.25;4.38;;;2.90;99.90;;;;;;5037130;28;20181;-86
2022/01/07 13:33:28;;;;;;;7.00;4.30;;;2.80;99.90;;;;;;5020902;28;20185;-88
2022/01/07 13:35:57;;;;;;;5.85;3.50;;;2.80;99.90;;;;;;5017085;28;20198;-89
2022/01/07 13:38:22;;;;;;;8.80;5.43;;;2.70;99.90;;;;;;5045340;28;20458;-85